createdAt,value
2023-05-02T00:01:53.957Z,100.00
2023-05-02T00:03:57.551Z,100.00
2023-05-02T00:06:01.699Z,100.00
2023-05-02T00:08:04.991Z,100.00
2023-05-02T00:10:10.230Z,100.00
2023-05-02T00:12:12.951Z,100.00
2023-05-02T00:14:15.660Z,100.00
2023-05-02T00:16:18.958Z,100.00
2023-05-02T00:18:21.761Z,100.00
2023-05-02T00:20:24.688Z,100.00
2023-05-02T00:22:28.300Z,100.00
2023-05-02T00:24:30.979Z,100.00
2023-05-02T00:26:35.084Z,100.00
2023-05-02T00:28:37.800Z,100.00
2023-05-02T00:30:44.052Z,100.00
2023-05-02T00:32:46.901Z,100.00
2023-05-02T00:34:49.572Z,100.00
2023-05-02T00:36:52.202Z,100.00
2023-05-02T00:38:54.918Z,100.00
2023-05-02T00:40:57.784Z,100.00
2023-05-02T00:43:01.780Z,100.00
2023-05-02T00:45:06.800Z,100.00
2023-05-02T00:47:09.798Z,100.00
2023-05-02T00:49:12.569Z,100.00
2023-05-02T00:51:15.307Z,100.00
2023-05-02T00:53:18.349Z,100.00
2023-05-02T00:55:21.378Z,100.00
2023-05-02T00:57:25.450Z,100.00
2023-05-02T00:59:29.555Z,100.00
2023-05-02T01:01:41.250Z,100.00
2023-05-02T01:03:55.727Z,100.00
2023-05-02T01:06:06.997Z,100.00
2023-05-02T01:08:19.320Z,100.00
2023-05-02T01:10:29.289Z,100.00
2023-05-02T01:12:38.822Z,100.00
2023-05-02T01:14:46.619Z,100.00
2023-05-02T01:16:50.817Z,100.00
2023-05-02T01:18:53.919Z,100.00
2023-05-02T01:21:00.342Z,100.00
2023-05-02T01:23:10.271Z,100.00
2023-05-02T01:25:22.356Z,100.00
2023-05-02T01:27:34.686Z,100.00
2023-05-02T01:29:41.137Z,100.00
2023-05-02T01:31:46.609Z,100.00
2023-05-02T01:33:50.028Z,100.00
2023-05-02T01:35:54.543Z,100.00
2023-05-02T01:37:59.077Z,100.00
2023-05-02T01:40:04.408Z,100.00
2023-05-02T01:42:07.122Z,100.00
2023-05-02T01:44:11.028Z,100.00
2023-05-02T01:46:16.047Z,100.00
2023-05-02T01:48:20.379Z,100.00
2023-05-02T01:50:27.064Z,100.00
2023-05-02T01:52:30.344Z,100.00
2023-05-02T01:54:36.202Z,100.00
2023-05-02T01:56:40.379Z,100.00
2023-05-02T01:58:44.294Z,100.00
2023-05-02T02:00:47.982Z,100.00
2023-05-02T02:02:54.721Z,100.00
2023-05-02T02:04:57.328Z,100.00
2023-05-02T02:07:04.873Z,100.00
2023-05-02T02:09:08.809Z,100.00
2023-05-02T02:11:18.099Z,100.00
2023-05-02T02:13:28.685Z,100.00
2023-05-02T02:15:35.529Z,100.00
2023-05-02T02:17:41.599Z,100.00
2023-05-02T02:19:47.037Z,100.00
2023-05-02T02:21:51.960Z,100.00
2023-05-02T02:23:58.397Z,100.00
2023-05-02T02:26:03.487Z,100.00
2023-05-02T02:28:06.895Z,100.00
2023-05-02T02:30:10.461Z,100.00
2023-05-02T02:32:13.269Z,100.00
2023-05-02T02:34:16.273Z,100.00
2023-05-02T02:36:25.757Z,100.00
2023-05-02T02:38:38.245Z,100.00
2023-05-02T02:40:46.628Z,100.00
2023-05-02T02:42:54.249Z,100.00
2023-05-02T02:45:07.053Z,100.00
2023-05-02T02:47:13.150Z,100.00
2023-05-02T02:49:28.205Z,100.00
2023-05-02T02:51:39.765Z,100.00
2023-05-02T02:53:52.059Z,100.00
2023-05-02T02:55:58.823Z,100.00
2023-05-02T02:58:08.485Z,100.00
2023-05-02T03:00:17.062Z,100.00
2023-05-02T03:02:23.873Z,100.00
2023-05-02T03:04:28.744Z,100.00
2023-05-02T03:06:32.909Z,100.00
2023-05-02T03:08:41.062Z,100.00
2023-05-02T03:10:43.828Z,100.00
2023-05-02T03:12:46.616Z,100.00
2023-05-02T03:14:49.478Z,100.00
2023-05-02T03:16:52.488Z,100.00
2023-05-02T03:18:55.199Z,100.00
2023-05-02T03:20:57.937Z,100.00
2023-05-02T03:23:02.069Z,100.00
2023-05-02T03:25:05.277Z,100.00
2023-05-02T03:27:08.021Z,100.00
2023-05-02T03:29:10.816Z,100.00
2023-05-02T03:31:13.813Z,100.00
2023-05-02T03:33:16.648Z,100.00
2023-05-02T03:35:19.350Z,100.00
2023-05-02T03:37:22.109Z,100.00
2023-05-02T03:39:26.295Z,100.00
2023-05-02T03:41:29.048Z,100.00
2023-05-02T03:43:31.927Z,100.00
2023-05-02T03:45:35.851Z,100.00
2023-05-02T03:47:38.625Z,100.00
2023-05-02T03:49:41.650Z,100.00
2023-05-02T03:51:44.432Z,100.00
2023-05-02T03:53:47.672Z,100.00
2023-05-02T03:55:51.736Z,100.00
2023-05-02T03:57:54.440Z,100.00
2023-05-02T03:59:57.702Z,100.00
2023-05-02T04:02:00.624Z,100.00
2023-05-02T04:04:03.425Z,100.00
2023-05-02T04:06:06.898Z,100.00
2023-05-02T04:08:09.732Z,100.00
2023-05-02T04:10:16.527Z,100.00
2023-05-02T04:12:21.540Z,100.00
2023-05-02T04:14:24.367Z,100.00
2023-05-02T04:16:27.197Z,100.00
2023-05-02T04:18:29.917Z,100.00
2023-05-02T04:20:32.664Z,100.00
2023-05-02T04:22:35.948Z,100.00
2023-05-02T04:24:38.654Z,100.00
2023-05-02T04:26:41.656Z,100.00
2023-05-02T04:28:45.816Z,100.00
2023-05-02T04:30:49.083Z,100.00
2023-05-02T04:32:51.960Z,100.00
2023-05-02T04:34:54.687Z,100.00
2023-05-02T04:36:57.517Z,100.00
2023-05-02T04:39:00.317Z,100.00
2023-05-02T04:41:08.839Z,100.00
2023-05-02T04:43:12.142Z,100.00
2023-05-02T04:45:16.164Z,100.00
2023-05-02T04:47:25.559Z,100.00
2023-05-02T04:49:32.200Z,100.00
2023-05-02T04:51:35.098Z,100.00
2023-05-02T04:53:38.340Z,100.00
2023-05-02T04:55:41.075Z,100.00
2023-05-02T04:57:43.811Z,100.00
2023-05-02T04:59:46.479Z,100.00
2023-05-02T05:01:50.691Z,100.00
2023-05-02T05:03:53.582Z,100.00
2023-05-02T05:05:56.314Z,100.00
2023-05-02T05:07:59.036Z,100.00
2023-05-02T05:10:01.984Z,100.00
2023-05-02T05:12:05.501Z,100.00
2023-05-02T05:14:08.143Z,100.00
2023-05-02T05:16:10.953Z,100.00
2023-05-02T05:18:15.797Z,100.00
2023-05-02T05:20:18.575Z,100.00
2023-05-02T05:22:21.562Z,100.00
2023-05-02T05:24:24.306Z,100.00
2023-05-02T05:26:27.293Z,100.00
2023-05-02T05:28:29.968Z,100.00
2023-05-02T05:30:32.614Z,100.00
2023-05-02T05:32:35.729Z,100.00
2023-05-02T05:34:39.860Z,100.00
2023-05-02T05:36:43.118Z,100.00
2023-05-02T05:38:46.264Z,100.00
2023-05-02T05:40:50.822Z,100.00
2023-05-02T05:42:53.952Z,100.00
2023-05-02T05:44:56.653Z,100.00
2023-05-02T05:46:59.335Z,100.00
2023-05-02T05:49:02.027Z,100.00
2023-05-02T05:51:07.383Z,100.00
2023-05-02T05:53:10.140Z,100.00
2023-05-02T05:55:12.917Z,100.00
2023-05-02T05:57:15.668Z,100.00
2023-05-02T05:59:18.322Z,100.00
2023-05-02T06:01:20.991Z,100.00
2023-05-02T06:03:23.783Z,100.00
2023-05-02T06:05:26.612Z,100.00
2023-05-02T06:07:30.664Z,100.00
2023-05-02T06:09:33.484Z,100.00
2023-05-02T06:11:38.042Z,100.00
2023-05-02T06:13:40.746Z,100.00
2023-05-02T06:15:43.616Z,100.00
2023-05-02T06:17:47.011Z,100.00
2023-05-02T06:19:50.067Z,100.00
2023-05-02T06:21:52.820Z,100.00
2023-05-02T06:23:56.834Z,100.00
2023-05-02T06:26:00.719Z,100.00
2023-05-02T06:28:03.392Z,100.00
2023-05-02T06:30:07.633Z,100.00
2023-05-02T06:32:10.764Z,100.00
2023-05-02T06:34:13.387Z,100.00
2023-05-02T06:36:16.141Z,100.00
2023-05-02T06:38:19.212Z,100.00
2023-05-02T06:40:23.226Z,100.00
2023-05-02T06:42:25.971Z,100.00
2023-05-02T06:44:28.646Z,100.00
2023-05-02T06:46:32.173Z,100.00
2023-05-02T06:48:36.783Z,100.00
2023-05-02T06:50:39.584Z,100.00
2023-05-02T06:52:42.278Z,100.00
2023-05-02T06:54:45.006Z,100.00
2023-05-02T06:56:49.092Z,100.00
2023-05-02T06:58:51.834Z,100.00
2023-05-02T07:00:54.576Z,100.00
2023-05-02T07:02:57.291Z,100.00
2023-05-02T07:05:00.029Z,100.00
2023-05-02T07:07:03.898Z,100.00
2023-05-02T07:09:06.695Z,100.00
2023-05-02T07:11:09.504Z,100.00
2023-05-02T07:13:13.567Z,100.00
2023-05-02T07:15:16.588Z,100.00
2023-05-02T07:17:19.551Z,100.00
2023-05-02T07:19:22.286Z,100.00
2023-05-02T07:21:24.960Z,100.00
2023-05-02T07:23:27.771Z,100.00
2023-05-02T07:25:30.686Z,100.00
2023-05-02T07:27:33.436Z,100.00
2023-05-02T07:29:37.562Z,100.00
2023-05-02T07:31:40.355Z,100.00
2023-05-02T07:33:43.020Z,100.00
2023-05-02T07:35:45.841Z,100.00
2023-05-02T07:37:48.564Z,100.00
2023-05-02T07:39:51.386Z,100.00
2023-05-02T07:41:54.536Z,100.00
2023-05-02T07:43:57.605Z,100.00
2023-05-02T07:46:05.307Z,100.00
2023-05-02T07:48:08.108Z,100.00
2023-05-02T07:50:12.152Z,100.00
2023-05-02T07:52:14.980Z,100.00
2023-05-02T07:54:18.108Z,100.00
2023-05-02T07:56:21.221Z,100.00
2023-05-02T07:58:23.992Z,100.00
2023-05-02T08:00:26.845Z,100.00
2023-05-02T08:02:30.933Z,100.00
2023-05-02T08:04:33.835Z,100.00
2023-05-02T08:06:36.889Z,100.00
2023-05-02T08:08:39.700Z,100.00
2023-05-02T08:10:42.400Z,100.00
2023-05-02T08:12:45.128Z,100.00
2023-05-02T08:14:47.798Z,100.00
2023-05-02T08:16:50.578Z,100.00
2023-05-02T08:18:54.953Z,100.00
2023-05-02T08:20:58.527Z,100.00
2023-05-02T08:23:01.358Z,100.00
2023-05-02T08:25:04.225Z,100.00
2023-05-02T08:27:07.701Z,100.00
2023-05-02T08:29:11.788Z,100.00
2023-05-02T08:31:14.554Z,100.00
2023-05-02T08:33:17.468Z,100.00
2023-05-02T08:35:21.530Z,100.00
2023-05-02T08:37:24.367Z,100.00
2023-05-02T08:39:27.073Z,100.00
2023-05-02T08:41:31.167Z,100.00
2023-05-02T08:43:34.647Z,100.00
2023-05-02T08:45:42.024Z,100.00
2023-05-02T08:47:46.796Z,100.00
2023-05-02T08:49:51.094Z,100.00
2023-05-02T08:51:56.185Z,100.00
2023-05-02T08:53:59.949Z,100.00
2023-05-02T08:56:03.067Z,100.00
2023-05-02T08:58:06.579Z,100.00
2023-05-02T09:00:10.105Z,100.00
2023-05-02T09:02:18.950Z,100.00
2023-05-02T09:04:25.350Z,100.00
2023-05-02T09:06:29.216Z,99.79
2023-05-02T09:08:33.701Z,100.00
2023-05-02T09:10:37.523Z,96.97
2023-05-02T09:12:40.484Z,97.86
2023-05-02T09:14:44.854Z,98.05
2023-05-02T09:16:48.756Z,98.83
2023-05-02T09:18:52.696Z,100.00
2023-05-02T09:20:55.880Z,95.35
2023-05-02T09:22:58.974Z,94.91
2023-05-02T09:25:04.513Z,89.40
2023-05-02T09:27:07.354Z,82.80
2023-05-02T09:29:10.246Z,79.69
2023-05-02T09:31:18.734Z,83.14
2023-05-02T09:33:28.484Z,84.19
2023-05-02T09:35:31.284Z,81.85
2023-05-02T09:37:37.705Z,84.27
2023-05-02T09:39:40.267Z,83.36
2023-05-02T09:41:45.525Z,80.46
2023-05-02T09:43:59.171Z,85.94
2023-05-02T09:46:03.738Z,86.98
2023-05-02T09:48:06.870Z,87.45
2023-05-02T09:50:10.401Z,87.72
2023-05-02T09:52:13.816Z,90.06
2023-05-02T09:54:35.908Z,79.43
2023-05-02T09:56:57.362Z,81.31
2023-05-02T09:59:14.670Z,76.26
2023-05-02T10:01:18.146Z,76.04
2023-05-02T10:03:21.165Z,75.17
2023-05-02T10:05:24.232Z,72.42
2023-05-02T10:07:27.367Z,73.88
2023-05-02T10:09:32.629Z,72.50
2023-05-02T10:11:35.936Z,70.98
2023-05-02T10:13:42.717Z,62.23
2023-05-02T10:15:46.557Z,69.55
2023-05-02T10:17:51.752Z,68.85
2023-05-02T10:19:58.839Z,66.76
2023-05-02T10:22:02.821Z,73.01
2023-05-02T10:24:06.915Z,74.95
2023-05-02T10:26:09.909Z,75.90
2023-05-02T10:28:12.982Z,76.04
2023-05-02T10:30:18.315Z,74.00
2023-05-02T10:32:23.633Z,74.86
2023-05-02T10:34:27.784Z,74.50
2023-05-02T10:36:33.614Z,71.62
2023-05-02T10:38:37.802Z,73.48
2023-05-02T10:40:42.496Z,73.74
2023-05-02T10:42:47.527Z,77.14
2023-05-02T10:44:51.697Z,75.75
2023-05-02T10:46:55.991Z,71.78
2023-05-02T10:49:01.947Z,72.33
2023-05-02T10:51:05.933Z,69.45
2023-05-02T10:53:27.634Z,66.96
2023-05-02T10:55:30.830Z,66.18
2023-05-02T10:57:33.888Z,64.87
2023-05-02T10:59:38.608Z,62.77
2023-05-02T11:01:42.846Z,64.95
2023-05-02T11:03:57.631Z,64.21
2023-05-02T11:06:07.067Z,64.93
2023-05-02T11:08:31.995Z,63.20
2023-05-02T11:10:34.794Z,65.80
2023-05-02T11:12:48.917Z,66.85
2023-05-02T11:14:51.860Z,66.01
2023-05-02T11:17:10.807Z,67.11
2023-05-02T11:19:15.050Z,71.23
2023-05-02T11:21:29.636Z,73.13
2023-05-02T11:23:32.528Z,74.05
2023-05-02T11:25:37.563Z,72.58
2023-05-02T11:27:41.324Z,72.99
2023-05-02T11:29:53.384Z,72.88
2023-05-02T11:31:56.195Z,67.60
2023-05-02T11:33:59.682Z,64.70
2023-05-02T11:36:04.083Z,64.08
2023-05-02T11:38:13.342Z,66.25
2023-05-02T11:40:17.004Z,67.17
2023-05-02T11:42:30.061Z,69.54
2023-05-02T11:44:32.869Z,68.79
2023-05-02T11:46:38.456Z,69.85
2023-05-02T11:48:42.830Z,68.83
2023-05-02T11:50:50.181Z,68.76
2023-05-02T11:52:55.034Z,67.76
2023-05-02T11:54:57.973Z,67.56
2023-05-02T11:57:02.588Z,66.61
2023-05-02T11:59:06.331Z,62.13
2023-05-02T12:01:14.306Z,59.73
2023-05-02T12:03:25.080Z,61.79
2023-05-02T12:05:31.516Z,62.08
2023-05-02T12:07:38.437Z,60.45
2023-05-02T12:09:53.409Z,63.28
2023-05-02T12:11:56.266Z,67.43
2023-05-02T12:13:59.025Z,65.80
2023-05-02T12:16:02.338Z,61.04
2023-05-02T12:18:05.663Z,60.40
2023-05-02T12:20:10.356Z,61.77
2023-05-02T12:22:14.489Z,62.68
2023-05-02T12:24:17.614Z,61.03
2023-05-02T12:26:25.245Z,60.74
2023-05-02T12:28:28.135Z,58.47
2023-05-02T12:30:33.157Z,57.04
2023-05-02T12:32:37.836Z,56.59
2023-05-02T12:34:41.265Z,57.29
2023-05-02T12:36:46.121Z,57.54
2023-05-02T12:38:53.539Z,61.30
2023-05-02T12:40:57.801Z,62.14
2023-05-02T12:43:04.356Z,59.75
2023-05-02T12:45:18.084Z,60.23
2023-05-02T12:47:22.598Z,60.96
2023-05-02T12:49:25.562Z,64.71
2023-05-02T12:51:28.754Z,67.03
2023-05-02T12:53:43.339Z,68.94
2023-05-02T12:55:46.922Z,70.06
2023-05-02T12:57:49.747Z,66.99
2023-05-02T12:59:55.203Z,68.93
2023-05-02T13:01:58.198Z,68.83
2023-05-02T13:04:01.037Z,67.99
2023-05-02T13:06:03.956Z,68.11
2023-05-02T13:08:07.161Z,66.86
2023-05-02T13:10:11.296Z,65.99
2023-05-02T13:12:14.045Z,65.12
2023-05-02T13:14:16.733Z,63.83
2023-05-02T13:16:21.428Z,63.46
2023-05-02T13:18:24.493Z,62.73
2023-05-02T13:20:27.257Z,65.83
2023-05-02T13:22:30.189Z,64.98
2023-05-02T13:24:32.887Z,65.42
2023-05-02T13:26:35.647Z,66.84
2023-05-02T13:28:38.338Z,67.29
2023-05-02T13:30:41.192Z,66.58
2023-05-02T13:32:45.347Z,63.98
2023-05-02T13:34:48.387Z,63.62
2023-05-02T13:36:51.038Z,60.63
2023-05-02T13:38:54.141Z,61.96
2023-05-02T13:40:56.898Z,61.41
2023-05-02T13:42:59.623Z,61.10
2023-05-02T13:45:05.045Z,60.62
2023-05-02T13:47:07.726Z,59.94
2023-05-02T13:49:11.762Z,59.02
2023-05-02T13:51:14.460Z,58.22
2023-05-02T13:53:17.403Z,58.39
2023-05-02T13:55:20.319Z,58.51
2023-05-02T13:57:23.030Z,59.82
2023-05-02T13:59:25.778Z,58.92
2023-05-02T14:01:28.740Z,57.51
2023-05-02T14:03:31.562Z,58.24
2023-05-02T14:05:36.550Z,58.71
2023-05-02T14:07:39.334Z,57.71
2023-05-02T14:09:42.061Z,55.81
2023-05-02T14:11:47.225Z,57.00
2023-05-02T14:13:49.927Z,58.72
2023-05-02T14:15:52.907Z,59.75
2023-05-02T14:17:55.664Z,60.82
2023-05-02T14:19:58.551Z,60.79
2023-05-02T14:22:02.628Z,61.26
2023-05-02T14:24:06.310Z,60.96
2023-05-02T14:26:09.215Z,61.90
2023-05-02T14:28:12.019Z,62.65
2023-05-02T14:30:14.868Z,62.67
2023-05-02T14:32:17.894Z,62.86
2023-05-02T14:34:21.966Z,62.18
2023-05-02T14:36:24.774Z,61.04
2023-05-02T14:38:28.874Z,60.90
2023-05-02T14:40:31.611Z,61.44
2023-05-02T14:42:34.325Z,57.50
2023-05-02T14:44:36.950Z,58.25
2023-05-02T14:46:39.785Z,59.96
2023-05-02T14:48:42.648Z,59.11
2023-05-02T14:50:45.547Z,59.86
2023-05-02T14:52:48.320Z,59.40
2023-05-02T14:54:52.795Z,60.33
2023-05-02T14:56:55.924Z,60.84
2023-05-02T14:58:58.798Z,60.49
2023-05-02T15:01:01.592Z,59.89
2023-05-02T15:03:07.368Z,59.34
2023-05-02T15:05:12.567Z,58.75
2023-05-02T15:07:16.253Z,58.05
2023-05-02T15:09:19.248Z,57.53
2023-05-02T15:11:24.344Z,57.83
2023-05-02T15:13:27.033Z,56.88
2023-05-02T15:15:29.863Z,56.92
2023-05-02T15:17:32.710Z,54.99
2023-05-02T15:19:35.434Z,56.13
2023-05-02T15:21:38.140Z,56.13
2023-05-02T15:23:40.838Z,56.89
2023-05-02T15:25:43.608Z,56.80
2023-05-02T15:27:47.727Z,58.98
2023-05-02T15:29:50.440Z,59.79
2023-05-02T15:31:54.584Z,59.24
2023-05-02T15:33:57.366Z,59.19
2023-05-02T15:36:00.679Z,58.89
2023-05-02T15:38:03.539Z,58.31
2023-05-02T15:40:07.585Z,57.38
2023-05-02T15:42:10.979Z,57.78
2023-05-02T15:44:15.079Z,58.83
2023-05-02T15:46:17.885Z,58.77
2023-05-02T15:48:20.826Z,59.26
2023-05-02T15:50:23.681Z,59.03
2023-05-02T15:52:26.345Z,59.26
2023-05-02T15:54:29.526Z,59.77
2023-05-02T15:56:32.400Z,58.56
2023-05-02T15:58:35.091Z,57.50
2023-05-02T16:00:39.304Z,56.76
2023-05-02T16:02:42.098Z,55.81
2023-05-02T16:04:44.844Z,56.11
2023-05-02T16:06:47.608Z,55.71
2023-05-02T16:08:50.368Z,55.28
2023-05-02T16:10:53.230Z,55.04
2023-05-02T16:12:55.883Z,55.54
2023-05-02T16:14:58.638Z,56.16
2023-05-02T16:17:02.818Z,55.71
2023-05-02T16:19:12.462Z,57.00
2023-05-02T16:21:15.208Z,57.46
2023-05-02T16:23:18.092Z,58.00
2023-05-02T16:25:21.166Z,57.30
2023-05-02T16:27:24.862Z,57.39
2023-05-02T16:29:27.595Z,58.43
2023-05-02T16:31:30.350Z,57.73
2023-05-02T16:33:34.537Z,58.21
2023-05-02T16:35:37.370Z,56.56
2023-05-02T16:37:40.987Z,56.69
2023-05-02T16:39:43.772Z,56.57
2023-05-02T16:41:49.251Z,57.04
2023-05-02T16:43:51.972Z,57.14
2023-05-02T16:46:02.427Z,57.31
2023-05-02T16:48:05.810Z,55.47
2023-05-02T16:50:10.727Z,53.84
2023-05-02T16:52:13.587Z,53.66
2023-05-02T16:54:16.305Z,52.73
2023-05-02T16:56:18.962Z,53.72
2023-05-02T16:58:21.761Z,53.55
2023-05-02T17:00:24.735Z,53.61
2023-05-02T17:02:27.414Z,54.38
2023-05-02T17:04:30.241Z,53.63
2023-05-02T17:06:34.626Z,54.27
2023-05-02T17:08:38.129Z,55.45
2023-05-02T17:10:40.819Z,53.60
2023-05-02T17:12:44.000Z,52.15
2023-05-02T17:14:46.811Z,53.18
2023-05-02T17:16:49.671Z,53.29
2023-05-02T17:18:53.592Z,52.93
2023-05-02T17:20:56.298Z,51.61
2023-05-02T17:23:00.807Z,50.50
2023-05-02T17:25:03.513Z,50.57
2023-05-02T17:27:06.544Z,50.73
2023-05-02T17:29:09.476Z,50.96
2023-05-02T17:31:13.078Z,52.30
2023-05-02T17:33:15.987Z,52.71
2023-05-02T17:35:18.905Z,53.46
2023-05-02T17:37:21.603Z,52.89
2023-05-02T17:39:25.684Z,54.37
2023-05-02T17:41:28.370Z,54.42
2023-05-02T17:43:31.117Z,54.46
2023-05-02T17:45:33.833Z,55.23
2023-05-02T17:47:36.657Z,56.16
2023-05-02T17:49:39.404Z,56.16
2023-05-02T17:51:42.133Z,56.49
2023-05-02T17:53:44.854Z,57.78
2023-05-02T17:55:48.944Z,59.40
2023-05-02T17:57:51.691Z,57.80
2023-05-02T17:59:58.411Z,56.82
2023-05-02T18:02:01.259Z,57.68
2023-05-02T18:04:04.690Z,55.95
2023-05-02T18:06:08.238Z,56.22
2023-05-02T18:08:11.036Z,57.02
2023-05-02T18:10:13.976Z,57.35
2023-05-02T18:12:18.039Z,56.58
2023-05-02T18:14:20.716Z,57.47
2023-05-02T18:16:23.445Z,58.88
2023-05-02T18:18:26.288Z,59.45
2023-05-02T18:20:29.038Z,60.93
2023-05-02T18:22:31.789Z,62.04
2023-05-02T18:24:34.567Z,62.41
2023-05-02T18:26:37.295Z,61.24
2023-05-02T18:28:43.492Z,62.46
2023-05-02T18:30:47.357Z,62.65
2023-05-02T18:32:50.100Z,63.65
2023-05-02T18:34:52.869Z,64.49
2023-05-02T18:36:56.226Z,63.69
2023-05-02T18:39:00.509Z,63.64
2023-05-02T18:41:04.072Z,63.37
2023-05-02T18:43:06.878Z,64.07
2023-05-02T18:45:11.209Z,64.22
2023-05-02T18:47:14.233Z,64.28
2023-05-02T18:49:17.033Z,66.39
2023-05-02T18:51:19.765Z,67.12
2023-05-02T18:53:24.623Z,67.38
2023-05-02T18:55:27.335Z,68.30
2023-05-02T18:57:30.184Z,68.98
2023-05-02T18:59:32.916Z,68.95
2023-05-02T19:01:37.062Z,70.15
2023-05-02T19:03:40.030Z,70.93
2023-05-02T19:05:44.169Z,71.57
2023-05-02T19:07:46.836Z,72.51
2023-05-02T19:09:49.646Z,73.50
2023-05-02T19:11:53.942Z,72.96
2023-05-02T19:13:59.825Z,72.69
2023-05-02T19:16:02.587Z,73.09
2023-05-02T19:18:07.124Z,74.43
2023-05-02T19:20:11.602Z,74.88
2023-05-02T19:22:14.888Z,74.23
2023-05-02T19:24:18.412Z,74.73
2023-05-02T19:26:21.206Z,74.09
2023-05-02T19:28:23.932Z,74.59
2023-05-02T19:30:26.718Z,75.16
2023-05-02T19:32:29.741Z,75.11
2023-05-02T19:34:34.096Z,75.45
2023-05-02T19:36:36.938Z,76.20
2023-05-02T19:38:41.535Z,76.60
2023-05-02T19:40:44.218Z,75.68
2023-05-02T19:42:46.958Z,76.63
2023-05-02T19:44:50.473Z,77.52
2023-05-02T19:46:53.169Z,76.78
2023-05-02T19:48:55.937Z,76.39
2023-05-02T19:51:02.482Z,76.37
2023-05-02T19:53:05.300Z,77.06
2023-05-02T19:55:08.770Z,77.06
2023-05-02T19:57:11.494Z,76.98
2023-05-02T19:59:14.159Z,77.31
2023-05-02T20:01:16.904Z,77.93
2023-05-02T20:03:20.794Z,78.83
2023-05-02T20:05:23.788Z,78.69
2023-05-02T20:07:27.975Z,79.13
2023-05-02T20:09:30.703Z,78.20
2023-05-02T20:11:33.323Z,78.86
2023-05-02T20:13:36.139Z,79.79
2023-05-02T20:15:38.976Z,80.00
2023-05-02T20:17:41.701Z,80.22
2023-05-02T20:19:45.290Z,81.13
2023-05-02T20:21:47.999Z,82.32
2023-05-02T20:23:52.091Z,81.55
2023-05-02T20:25:54.775Z,81.70
2023-05-02T20:27:57.476Z,81.70
2023-05-02T20:30:00.487Z,81.78
2023-05-02T20:32:03.570Z,82.10
2023-05-02T20:34:06.427Z,82.80
2023-05-02T20:36:09.252Z,82.87
2023-05-02T20:38:12.381Z,82.15
2023-05-02T20:40:16.811Z,83.28
2023-05-02T20:42:23.370Z,83.82
2023-05-02T20:44:28.593Z,84.19
2023-05-02T20:46:31.705Z,84.67
2023-05-02T20:48:34.373Z,83.89
2023-05-02T20:50:37.164Z,85.12
2023-05-02T20:52:40.020Z,86.73
2023-05-02T20:54:43.383Z,86.08
2023-05-02T20:56:47.460Z,84.55
2023-05-02T20:58:50.146Z,85.77
2023-05-02T21:00:52.980Z,86.35
2023-05-02T21:02:55.779Z,86.24
2023-05-02T21:04:59.220Z,87.13
2023-05-02T21:07:02.125Z,87.80
2023-05-02T21:09:04.952Z,88.35
2023-05-02T21:11:15.174Z,87.07
2023-05-02T21:13:19.288Z,87.67
2023-05-02T21:15:22.153Z,86.47
2023-05-02T21:17:26.253Z,85.86
2023-05-02T21:19:29.015Z,86.24
2023-05-02T21:21:32.318Z,85.87
2023-05-02T21:23:35.059Z,86.98
2023-05-02T21:25:38.219Z,86.29
2023-05-02T21:27:41.066Z,86.56
2023-05-02T21:29:45.244Z,86.59
2023-05-02T21:31:48.169Z,87.51
2023-05-02T21:33:51.273Z,87.40
2023-05-02T21:35:57.824Z,88.15
2023-05-02T21:38:00.862Z,88.15
2023-05-02T21:40:04.358Z,89.12
2023-05-02T21:42:07.305Z,89.05
2023-05-02T21:44:11.481Z,90.11
2023-05-02T21:46:15.706Z,89.98
2023-05-02T21:48:19.159Z,89.49
2023-05-02T21:50:22.588Z,90.00
2023-05-02T21:52:25.830Z,90.80
2023-05-02T21:54:28.759Z,91.03
2023-05-02T21:56:31.634Z,91.81
2023-05-02T21:58:34.329Z,92.98
2023-05-02T22:00:38.297Z,92.59
2023-05-02T22:02:42.733Z,92.72
2023-05-02T22:04:48.198Z,92.17
2023-05-02T22:06:53.826Z,92.16
2023-05-02T22:08:56.782Z,92.79
2023-05-02T22:10:59.668Z,92.97
2023-05-02T22:13:03.276Z,93.06
2023-05-02T22:15:08.219Z,93.57
2023-05-02T22:17:11.194Z,94.65
2023-05-02T22:19:15.614Z,94.31
2023-05-02T22:21:20.718Z,94.19
2023-05-02T22:23:23.850Z,93.79
2023-05-02T22:25:26.631Z,94.70
2023-05-02T22:27:29.499Z,94.68
2023-05-02T22:29:32.589Z,94.63
2023-05-02T22:31:36.217Z,96.01
2023-05-02T22:33:39.459Z,95.61
2023-05-02T22:35:43.616Z,95.49
2023-05-02T22:37:46.377Z,95.87
2023-05-02T22:39:49.011Z,95.71
2023-05-02T22:41:51.761Z,96.48
2023-05-02T22:43:54.581Z,96.42
2023-05-02T22:45:58.714Z,97.14
2023-05-02T22:48:01.492Z,97.66
2023-05-02T22:50:05.726Z,98.23
2023-05-02T22:52:09.877Z,99.77
2023-05-02T22:54:14.897Z,100.00
2023-05-02T22:56:17.688Z,100.00
2023-05-02T22:58:20.481Z,100.00
2023-05-02T23:00:23.605Z,100.00
2023-05-02T23:02:26.822Z,100.00
2023-05-02T23:04:32.576Z,100.00
2023-05-02T23:06:35.328Z,100.00
2023-05-02T23:08:39.423Z,100.00
2023-05-02T23:10:42.146Z,100.00
2023-05-02T23:12:44.838Z,100.00
2023-05-02T23:14:47.532Z,100.00
2023-05-02T23:16:53.648Z,100.00
2023-05-02T23:18:56.456Z,100.00
2023-05-02T23:20:59.253Z,100.00
2023-05-02T23:23:01.948Z,100.00
2023-05-02T23:25:08.637Z,100.00
2023-05-02T23:27:11.157Z,100.00
2023-05-02T23:29:14.398Z,100.00
2023-05-02T23:31:17.279Z,100.00
2023-05-02T23:33:20.142Z,100.00
2023-05-02T23:35:22.836Z,100.00
2023-05-02T23:37:25.597Z,100.00
2023-05-02T23:39:28.344Z,100.00
2023-05-02T23:41:32.601Z,100.00
2023-05-02T23:43:35.571Z,100.00
2023-05-02T23:45:38.379Z,100.00
2023-05-02T23:47:41.364Z,100.00
2023-05-02T23:49:43.097Z,100.00
2023-05-02T23:51:46.082Z,100.00
2023-05-02T23:53:49.002Z,100.00
2023-05-02T23:55:52.070Z,100.00
2023-05-02T23:57:56.300Z,100.00
2023-05-02T23:59:59.026Z,100.00
